Terminal Aerodrome Forecast
Issued by NWS Grand Forks, ND

Home | Current Version | Previous Version | Graphics & Text | Print | Product List | Glossary On
Versions: 1 2 3 4 5 6 7 8 9 10 11 12 13 14 15 16 17 18
000
FTUS43 KFGF 281700
TAFFAR
TAF
KFAR 281732Z 2818/0118 18013KT P6SM BKN120
     FM010200 22010KT P6SM BKN100
     FM011200 24007KT P6SM BKN080
     FM011500 26008KT P6SM BKN050=

USA.gov is the U.S. government's official web portal to all federal, state and local government web resources and services.